Time;durP1;ratioP1;P1;durP2;ratioP2;P2;SDS_P1;SDS_P2;PMS_P1;PMS_P2;Temp;Humidity;BMP_temperature;BMP_pressure;BME280_temperature;BME280_humidity;BME280_pressure;Samples;Min_cycle;Max_cycle;Signal;HPM_P1;HPM_P2
2022/07/30 00:00:48;;;;;;;6.47;2.50;;;;;;;24.30;58.34;100564.91;2093672;28;20127;-77
2022/07/30 00:02:10;;;;;;;6.65;2.22;;;;;;;24.39;58.23;100561.81;2089379;28;20140;-76
2022/07/30 00:03:33;;;;;;;8.57;2.50;;;;;;;24.45;57.92;100561.53;2078044;28;20052;-78
2022/07/30 00:04:54;;;;;;;7.45;2.58;;;;;;;24.49;57.84;100560.44;2075810;28;20058;-77
2022/07/30 00:06:17;;;;;;;8.07;2.28;;;;;;;24.51;57.62;100563.09;2100033;28;20046;-77
2022/07/30 00:07:39;;;;;;;8.45;2.67;;;;;;;24.44;57.48;100565.19;2080932;28;20053;-77
2022/07/30 00:09:02;;;;;;;4.72;2.47;;;;;;;24.32;58.01;100578.34;2083708;28;20788;-77
2022/07/30 00:10:24;;;;;;;7.78;2.70;;;;;;;24.06;58.42;100569.53;2095165;28;20045;-77
2022/07/30 00:11:45;;;;;;;6.93;2.30;;;;;;;23.84;58.88;100574.94;2092083;28;20048;-77
2022/07/30 00:13:08;;;;;;;7.95;2.33;;;;;;;23.79;59.00;100573.41;2094353;28;20028;-78
2022/07/30 00:14:30;;;;;;;6.68;2.28;;;;;;;23.80;58.94;100570.66;2089002;28;20060;-77
2022/07/30 00:15:54;;;;;;;7.43;2.33;;;;;;;23.90;59.01;100576.50;2101600;28;20059;-77
2022/07/30 00:17:15;;;;;;;6.30;2.40;;;;;;;23.92;58.83;100574.63;2096769;28;20480;-77
2022/07/30 00:18:37;;;;;;;5.95;2.35;;;;;;;23.92;58.84;100573.75;2094607;28;20040;-76
2022/07/30 00:20:00;;;;;;;8.18;2.70;;;;;;;23.91;58.87;100574.69;2084843;28;20051;-77
2022/07/30 00:21:22;;;;;;;9.60;2.47;;;;;;;23.92;58.92;100571.06;2086213;28;20045;-77
2022/07/30 00:22:45;;;;;;;6.95;2.45;;;;;;;24.00;58.89;100568.91;2094289;28;20155;-77
2022/07/30 00:24:07;;;;;;;9.32;2.78;;;;;;;23.99;58.76;100570.75;2102169;28;20040;-77
2022/07/30 00:25:30;;;;;;;7.57;2.65;;;;;;;23.99;58.68;100569.84;2096758;28;20539;-77
2022/07/30 00:26:51;;;;;;;7.88;2.70;;;;;;;24.02;58.77;100564.34;2102935;28;20075;-77
2022/07/30 00:28:13;;;;;;;6.68;2.15;;;;;;;24.03;58.87;100571.47;2088802;28;20488;-77
2022/07/30 00:29:35;;;;;;;6.90;2.85;;;;;;;24.06;58.83;100563.25;2082100;28;20045;-77
2022/07/30 00:31:00;;;;;;;6.55;2.55;;;;;;;24.10;58.97;100563.06;2086303;28;20057;-77
2022/07/30 00:32:22;;;;;;;4.93;2.50;;;;;;;24.10;58.88;100565.75;2094708;28;20052;-77
2022/07/30 00:33:44;;;;;;;9.93;2.70;;;;;;;24.13;58.89;100562.94;2088929;28;20048;-76
2022/07/30 00:35:08;;;;;;;5.78;2.35;;;;;;;24.13;58.76;100567.44;2090951;28;20086;-76
2022/07/30 00:36:31;;;;;;;4.88;2.40;;;;;;;24.04;59.13;100559.75;2086158;28;20546;-76
2022/07/30 00:37:52;;;;;;;7.55;2.35;;;;;;;24.02;59.30;100558.94;2100002;28;20044;-76
2022/07/30 00:39:14;;;;;;;7.18;2.40;;;;;;;24.04;59.20;100554.34;2097203;28;20059;-76
2022/07/30 00:40:37;;;;;;;9.48;2.30;;;;;;;24.06;59.42;100560.56;2093141;28;20041;-77
2022/07/30 00:42:00;;;;;;;5.85;2.40;;;;;;;24.08;59.18;100558.69;2086408;28;20525;-77
2022/07/30 00:43:22;;;;;;;9.02;2.42;;;;;;;24.07;59.07;100565.91;2091850;28;20400;-77
2022/07/30 00:44:43;;;;;;;8.88;2.28;;;;;;;24.01;59.39;100560.78;2094020;28;20123;-77
2022/07/30 00:46:07;;;;;;;7.38;2.30;;;;;;;23.96;59.55;100557.38;2094141;28;20037;-77
2022/07/30 00:47:29;;;;;;;7.93;2.10;;;;;;;24.00;59.83;100566.22;2094189;28;20090;-77
2022/07/30 00:48:51;;;;;;;9.18;2.70;;;;;;;23.96;59.59;100560.06;2085584;28;20036;-77
2022/07/30 00:50:15;;;;;;;8.63;2.25;;;;;;;23.95;59.79;100557.47;2091465;28;20037;-76
2022/07/30 00:51:37;;;;;;;7.45;2.72;;;;;;;24.00;59.97;100561.72;2094202;28;20041;-76
2022/07/30 00:52:59;;;;;;;6.22;2.30;;;;;;;24.12;60.02;100560.28;2093947;28;20512;-76
2022/07/30 00:54:22;;;;;;;5.85;2.50;;;;;;;24.21;59.82;100550.03;2094220;28;20523;-77
2022/07/30 00:55:44;;;;;;;6.35;2.65;;;;;;;24.27;59.73;100548.00;2092185;28;20044;-77
2022/07/30 00:57:06;;;;;;;7.15;2.35;;;;;;;24.30;59.68;100554.13;2085908;28;20514;-77
2022/07/30 00:58:29;;;;;;;8.45;2.35;;;;;;;24.33;59.67;100555.81;2082089;28;20064;-77
2022/07/30 00:59:50;;;;;;;6.38;2.28;;;;;;;24.32;59.78;100552.25;2082726;28;20136;-77
2022/07/30 01:01:14;;;;;;;4.63;2.97;;;;;;;24.30;59.68;100553.25;2090548;28;20052;-77
2022/07/30 01:02:36;;;;;;;8.10;2.40;;;;;;;24.25;59.40;100552.56;2102477;28;20074;-77
2022/07/30 01:03:58;;;;;;;9.30;2.38;;;;;;;24.20;59.67;100552.78;2096727;28;20045;-76
2022/07/30 01:05:20;;;;;;;5.38;2.10;;;;;;;24.20;59.71;100552.78;2093971;28;20044;-77
2022/07/30 01:06:42;;;;;;;6.07;2.22;;;;;;;24.13;59.62;100559.34;2102339;28;20507;-77
2022/07/30 01:08:04;;;;;;;7.07;2.22;;;;;;;24.11;59.63;100553.13;2096388;28;20547;-76
2022/07/30 01:09:26;;;;;;;4.03;2.05;;;;;;;24.07;59.69;100555.09;2093802;28;20114;-76
2022/07/30 01:10:48;;;;;;;6.25;2.30;;;;;;;24.02;59.54;100553.56;2102464;28;20063;-77
2022/07/30 01:12:12;;;;;;;5.38;1.95;;;;;;;24.03;59.81;100555.28;2087907;28;20076;-76
2022/07/30 01:13:34;;;;;;;5.05;2.10;;;;;;;24.06;59.89;100550.66;2090686;28;20036;-76
2022/07/30 01:14:59;;;;;;;8.85;2.13;;;;;;;24.17;59.82;100548.34;2085811;28;20527;-77
2022/07/30 01:16:22;;;;;;;7.28;2.20;;;;;;;24.32;59.31;100546.84;2090950;28;20445;-77
2022/07/30 01:17:47;;;;;;;11.73;3.40;;;;;;;24.47;59.03;100550.69;2093441;28;20052;-76
2022/07/30 01:21:05;;;;;;;3.65;1.98;;;;;;;24.52;58.72;100546.81;2090911;28;20053;-77
2022/07/30 01:22:46;;;;;;;5.55;2.38;;;;;;;24.39;58.90;100537.53;2096797;28;20040;-77
2022/07/30 01:24:26;;;;;;;6.50;2.20;;;;;;;24.36;59.09;100537.66;2079931;28;20493;-77
2022/07/30 01:26:02;;;;;;;7.25;2.33;;;;;;;24.39;58.87;100540.22;2096352;28;20496;-77
2022/07/30 01:27:25;;;;;;;9.55;2.45;;;;;;;24.40;58.90;100535.72;2088241;28;20535;-76
2022/07/30 01:28:52;;;;;;;5.55;2.33;;;;;;;24.31;58.86;100541.50;2093874;28;20552;-77
2022/07/30 01:30:20;;;;;;;6.10;3.30;;;;;;;24.16;59.06;100534.94;2086183;28;20053;-77
2022/07/30 01:31:44;;;;;;;6.70;2.22;;;;;;;24.05;59.41;100543.50;2083756;28;20068;-77
2022/07/30 01:33:10;;;;;;;12.98;2.90;;;;;;;23.99;59.72;100535.69;2083564;28;20045;-77
2022/07/30 01:34:36;;;;;;;4.80;2.53;;;;;;;23.98;59.90;100542.00;2086445;28;20462;-77
2022/07/30 01:36:00;;;;;;;8.65;2.58;;;;;;;23.91;59.99;100540.50;2088417;28;20084;-76
2022/07/30 01:37:22;;;;;;;7.95;2.88;;;;;;;23.89;59.98;100533.44;2096315;28;20068;-77
2022/07/30 01:38:47;;;;;;;4.25;1.90;;;;;;;23.90;60.25;100537.88;2093731;28;20032;-77
2022/07/30 01:40:11;;;;;;;6.78;2.67;;;;;;;23.88;60.33;100534.41;2094505;28;20055;-77
2022/07/30 01:41:35;;;;;;;5.68;2.35;;;;;;;23.90;60.41;100533.38;2085282;28;20052;-77
2022/07/30 01:43:00;;;;;;;7.88;2.60;;;;;;;23.94;60.25;100534.13;2083092;28;20044;-77
2022/07/30 01:44:26;;;;;;;9.93;2.78;;;;;;;24.01;60.26;100538.31;2092251;28;20113;-77
2022/07/30 01:45:48;;;;;;;7.20;2.13;;;;;;;24.04;60.24;100533.66;2085862;28;20432;-77
2022/07/30 01:47:14;;;;;;;8.80;2.72;;;;;;;24.05;60.22;100531.81;2085342;28;20044;-77
2022/07/30 01:48:40;;;;;;;12.10;2.50;;;;;;;24.11;60.54;100532.44;2076753;28;20817;-77
2022/07/30 01:50:07;;;;;;;8.63;2.65;;;;;;;24.10;60.62;100524.41;2092475;28;20131;-75
2022/07/30 01:51:31;;;;;;;5.38;1.88;;;;;;;24.16;60.47;100533.09;2085901;28;20045;-75
2022/07/30 01:52:56;;;;;;;5.55;2.17;;;;;;;24.24;60.55;100527.41;2091704;28;20056;-77
2022/07/30 01:54:19;;;;;;;9.43;2.85;;;;;;;24.27;60.40;100527.28;2084874;28;20060;-76
2022/07/30 01:55:42;;;;;;;7.72;2.55;;;;;;;24.29;60.19;100532.59;2082596;28;20056;-76
2022/07/30 01:57:08;;;;;;;5.90;2.33;;;;;;;24.30;60.23;100532.53;2091776;28;20091;-77
2022/07/30 01:58:35;;;;;;;6.00;2.55;;;;;;;24.31;60.27;100536.09;2086268;28;20131;-76
2022/07/30 02:00:11;;;;;;;6.32;2.30;;;;;;;24.28;60.38;100533.56;2094082;28;20040;-76
2022/07/30 02:01:39;;;;;;;5.82;2.40;;;;;;;24.26;60.33;100530.94;2093581;28;20089;-76
2022/07/30 02:03:01;;;;;;;10.30;2.63;;;;;;;24.28;60.31;100529.03;2085384;28;20481;-77
2022/07/30 02:04:24;;;;;;;9.52;3.50;;;;;;;24.30;60.37;100529.84;2083868;28;20414;-77
2022/07/30 02:05:52;;;;;;;4.28;2.15;;;;;;;24.34;60.77;100530.59;2093418;28;20037;-77
2022/07/30 02:07:22;;;;;;;3.97;2.28;;;;;;;24.37;60.55;100536.72;2086742;28;20040;-77
2022/07/30 02:08:52;;;;;;;5.68;2.83;;;;;;;24.31;60.82;100537.00;2088591;28;20079;-77
2022/07/30 02:10:24;;;;;;;7.90;2.42;;;;;;;24.26;60.78;100536.31;2094582;28;20049;-77
2022/07/30 02:13:32;;;;;;;6.32;2.70;;;;;;;24.28;60.82;100536.25;2096422;28;20508;-77
2022/07/30 02:14:59;;;;;;;9.02;2.70;;;;;;;24.28;60.88;100534.44;2096070;28;20067;-77
2022/07/30 02:16:27;;;;;;;8.02;2.50;;;;;;;24.29;60.79;100527.19;2084781;28;20083;-77
2022/07/30 02:17:55;;;;;;;7.80;2.03;;;;;;;24.28;60.53;100529.03;2084347;28;20112;-77
2022/07/30 02:19:19;;;;;;;5.85;2.63;;;;;;;24.28;60.87;100531.75;2100190;28;20062;-77
2022/07/30 02:20:45;;;;;;;7.93;2.53;;;;;;;24.27;60.73;100532.69;2086380;28;20648;-77
2022/07/30 02:22:11;;;;;;;4.25;2.28;;;;;;;24.27;60.72;100532.69;2086129;28;20037;-77
2022/07/30 02:23:39;;;;;;;5.10;2.13;;;;;;;24.28;60.97;100529.03;2091622;28;20063;-77
2022/07/30 02:25:01;;;;;;;5.40;1.92;;;;;;;24.29;60.97;100525.38;2094480;28;20373;-77
2022/07/30 02:26:27;;;;;;;6.80;2.63;;;;;;;24.31;60.89;100538.81;2085909;28;20052;-77
2022/07/30 02:27:53;;;;;;;6.25;2.30;;;;;;;24.33;60.83;100527.00;2091701;28;20443;-77
2022/07/30 02:29:19;;;;;;;4.93;2.20;;;;;;;24.33;61.13;100527.00;2093750;28;20118;-77
2022/07/30 02:30:47;;;;;;;5.68;2.30;;;;;;;24.30;61.03;100537.94;2093375;28;20540;-77
2022/07/30 02:32:13;;;;;;;7.32;2.42;;;;;;;24.29;61.14;100536.16;2085255;28;20094;-77
2022/07/30 02:33:40;;;;;;;4.53;2.20;;;;;;;24.31;61.25;100541.50;2083756;28;20052;-76
2022/07/30 02:35:10;;;;;;;7.78;2.50;;;;;;;24.32;61.43;100536.06;2092022;28;20094;-76
2022/07/30 02:36:35;;;;;;;8.73;2.47;;;;;;;24.34;61.24;100536.00;2094925;28;20049;-77
2022/07/30 02:37:59;;;;;;;7.63;2.45;;;;;;;24.38;61.38;100534.91;2093469;28;20045;-77
2022/07/30 02:39:22;;;;;;;9.20;2.63;;;;;;;24.39;61.31;100531.25;2085576;28;20052;-77
2022/07/30 02:40:46;;;;;;;7.70;2.38;;;;;;;24.42;61.17;100526.59;2098793;28;20052;-77
2022/07/30 02:42:11;;;;;;;4.43;2.40;;;;;;;24.45;61.18;100526.47;2086926;28;20055;-77
2022/07/30 02:43:36;;;;;;;7.82;2.83;;;;;;;24.46;61.00;100535.44;2088563;28;20043;-77
2022/07/30 02:45:02;;;;;;;8.55;2.60;;;;;;;24.43;61.04;100531.03;2083406;28;20052;-77
2022/07/30 02:46:26;;;;;;;5.90;2.72;;;;;;;24.38;60.90;100532.19;2088486;28;20424;-77
2022/07/30 02:48:09;;;;;;;7.25;2.10;;;;;;;24.34;60.83;100530.59;2095719;28;20048;-77
2022/07/30 02:49:34;;;;;;;6.30;2.33;;;;;;;24.35;60.70;100525.09;2094174;28;20071;-77
2022/07/30 02:51:01;;;;;;;8.77;3.05;;;;;;;24.41;60.52;100527.56;2085496;28;20057;-76
2022/07/30 02:52:27;;;;;;;6.40;2.15;;;;;;;24.40;60.63;100533.00;2082018;28;20041;-77
2022/07/30 02:53:51;;;;;;;9.88;2.60;;;;;;;24.38;60.51;100527.69;2083724;28;20045;-77
2022/07/30 02:55:17;;;;;;;7.68;2.50;;;;;;;24.35;60.59;100532.34;2099928;28;20044;-77
2022/07/30 02:56:41;;;;;;;5.30;2.65;;;;;;;24.34;60.37;100528.78;2087802;28;20045;-77
2022/07/30 02:58:04;;;;;;;5.05;2.42;;;;;;;24.33;60.26;100523.44;2083323;28;20501;-77
2022/07/30 02:59:30;;;;;;;5.88;2.70;;;;;;;24.31;60.24;100536.09;2085629;28;20068;-77
2022/07/30 03:00:55;;;;;;;7.63;2.22;;;;;;;24.30;60.64;100527.13;2085739;28;20048;-77
2022/07/30 03:02:18;;;;;;;5.93;2.08;;;;;;;24.34;60.20;100531.47;2073663;28;20627;-76
2022/07/30 03:03:43;;;;;;;7.38;2.55;;;;;;;24.35;60.40;100530.50;2091584;28;20499;-76
2022/07/30 03:05:08;;;;;;;5.70;2.42;;;;;;;24.35;60.30;100533.19;2090110;28;20084;-77
2022/07/30 03:06:32;;;;;;;9.07;2.63;;;;;;;24.36;60.12;100536.78;2093434;28;20091;-76
2022/07/30 03:07:58;;;;;;;6.20;2.63;;;;;;;24.37;60.03;100535.84;2088999;28;20044;-77
2022/07/30 03:09:21;;;;;;;10.13;2.40;;;;;;;24.39;59.89;100542.06;2087719;28;20045;-76
2022/07/30 03:10:45;;;;;;;4.72;2.25;;;;;;;24.39;59.82;100537.53;2082606;28;20045;-76
2022/07/30 03:12:07;;;;;;;5.45;2.40;;;;;;;24.41;59.77;100538.34;2092745;28;20065;-75
2022/07/30 03:13:30;;;;;;;8.40;2.33;;;;;;;24.40;59.74;100542.00;2086492;28;20081;-76
2022/07/30 03:14:52;;;;;;;5.05;2.13;;;;;;;24.40;59.53;100538.41;2087163;28;20125;-77
2022/07/30 03:16:18;;;;;;;8.02;2.25;;;;;;;24.40;59.55;100539.28;2094838;28;20171;-76
2022/07/30 03:17:44;;;;;;;11.65;2.30;;;;;;;24.43;59.39;100543.66;2087037;28;20077;-77
2022/07/30 03:19:08;;;;;;;5.43;2.20;;;;;;;24.41;59.24;100537.47;2093511;28;20431;-77
2022/07/30 03:20:34;;;;;;;5.43;2.83;;;;;;;24.40;59.16;100539.28;2096099;28;20063;-77
2022/07/30 03:21:57;;;;;;;7.75;2.65;;;;;;;24.38;58.96;100538.47;2099403;28;20052;-77
2022/07/30 03:23:21;;;;;;;6.22;2.50;;;;;;;24.37;58.96;100543.94;2097584;28;20070;-77
2022/07/30 03:24:44;;;;;;;9.25;2.13;;;;;;;24.35;58.79;100544.00;2095340;28;20106;-77
2022/07/30 03:26:09;;;;;;;8.88;2.40;;;;;;;24.37;58.71;100542.09;2094868;28;20086;-77
2022/07/30 03:27:31;;;;;;;9.10;2.22;;;;;;;24.37;58.56;100539.41;2094730;28;20063;-77
2022/07/30 03:28:53;;;;;;;;;;;;;;;24.36;58.47;100543.06;2083830;28;20041;-76
2022/07/30 03:30:17;;;;;;;6.13;2.83;;;;;;;24.35;58.35;100535.91;2091557;28;19924;-77
2022/07/30 03:31:41;;;;;;;5.55;2.22;;;;;;;24.36;58.40;100540.34;2094994;28;20500;-77
2022/07/30 03:33:05;;;;;;;8.65;2.22;;;;;;;24.34;58.19;100542.25;2086762;28;20493;-76
2022/07/30 03:34:27;;;;;;;8.60;2.22;;;;;;;24.35;58.42;100538.59;2092313;28;20132;-76
2022/07/30 03:35:49;;;;;;;;;;;;;;;24.34;58.35;100536.88;2095069;28;20699;-77
2022/07/30 03:37:12;;;;;;;5.70;2.22;;;;;;;24.33;58.52;100535.09;2095105;28;19927;-77
2022/07/30 03:38:37;;;;;;;8.52;2.30;;;;;;;24.37;58.13;100539.41;2086108;28;20045;-77
2022/07/30 03:39:59;;;;;;;6.85;2.67;;;;;;;24.41;58.04;100532.06;2092768;28;20109;-77
2022/07/30 03:41:23;;;;;;;8.63;2.72;;;;;;;24.48;58.02;100534.41;2086553;28;20045;-77
2022/07/30 03:42:45;;;;;;;4.75;1.98;;;;;;;24.54;57.78;100541.38;2081788;28;20048;-77
2022/07/30 03:44:10;;;;;;;3.47;1.80;;;;;;;24.61;57.84;100541.00;2091564;28;20055;-77
2022/07/30 03:45:33;;;;;;;5.55;2.33;;;;;;;24.68;57.65;100544.28;2078719;28;20047;-78
2022/07/30 03:47:05;;;;;;;3.63;2.10;;;;;;;24.77;57.46;100543.00;2083771;28;20056;-76
2022/07/30 03:48:34;;;;;;;6.25;2.60;;;;;;;24.89;57.21;100539.72;2085419;28;20099;-77
2022/07/30 03:49:58;;;;;;;5.55;2.85;;;;;;;25.02;57.04;100543.63;2092867;28;20781;-77
2022/07/30 03:51:22;;;;;;;5.68;3.00;;;;;;;25.14;57.04;100543.03;2086364;28;20493;-77
2022/07/30 03:52:44;;;;;;;5.72;2.63;;;;;;;25.24;56.62;100540.78;2092260;28;20041;-77
2022/07/30 03:54:12;;;;;;;8.07;2.55;;;;;;;25.34;56.60;100544.78;2087043;28;20508;-76
2022/07/30 03:55:34;;;;;;;7.85;2.28;;;;;;;25.40;56.49;100545.34;2100627;28;20075;-77
2022/07/30 03:57:20;;;;;;;5.40;2.50;;;;;;;25.53;56.63;100547.47;2081855;28;20068;-77
2022/07/30 03:58:43;;;;;;;5.57;2.10;;;;;;;25.61;56.40;100542.56;2094771;28;20077;-77
2022/07/30 04:00:07;;;;;;;4.30;2.10;;;;;;;25.70;56.46;100544.81;2093613;28;20071;-77
2022/07/30 04:01:35;;;;;;;4.97;2.13;;;;;;;25.80;56.35;100559.63;2096316;28;20571;-77
2022/07/30 04:03:29;;;;;;;3.30;2.00;;;;;;;25.91;56.28;100546.44;2080141;28;20060;-77
2022/07/30 04:04:54;;;;;;;3.80;1.70;;;;;;;26.00;55.98;100547.78;2087087;28;20143;-77
2022/07/30 04:06:18;;;;;;;5.13;2.20;;;;;;;26.11;55.89;100545.41;2088921;28;20094;-77
2022/07/30 04:07:42;;;;;;;5.18;1.98;;;;;;;26.21;55.54;100549.38;2094783;28;20107;-77
2022/07/30 04:09:05;;;;;;;6.30;2.17;;;;;;;26.33;55.37;100550.59;2085942;28;20033;-77
2022/07/30 04:10:27;;;;;;;4.85;2.08;;;;;;;26.44;55.08;100551.81;2083836;28;20057;-77
2022/07/30 04:11:55;;;;;;;5.43;2.00;;;;;;;26.55;55.05;100546.69;2101257;28;20064;-77
2022/07/30 04:13:21;;;;;;;6.00;1.73;;;;;;;26.66;54.77;100551.50;2088596;28;20144;-77
2022/07/30 04:14:45;;;;;;;4.00;1.90;;;;;;;26.77;54.79;100550.94;2084321;28;20090;-77
2022/07/30 04:16:13;;;;;;;5.05;2.03;;;;;;;26.88;54.48;100549.38;2085914;28;20060;-77
2022/07/30 04:17:40;;;;;;;9.05;2.70;;;;;;;26.99;54.26;100554.22;2091708;28;20087;-77
2022/07/30 04:19:08;;;;;;;8.55;2.13;;;;;;;27.10;54.32;100545.50;2089209;28;20453;-76
2022/07/30 04:20:37;;;;;;;12.05;2.28;;;;;;;27.20;54.03;100544.03;2095201;28;20097;-77
2022/07/30 04:22:02;;;;;;;5.35;2.25;;;;;;;27.32;53.96;100546.91;2105030;28;20078;-77
2022/07/30 04:23:26;;;;;;;4.57;2.17;;;;;;;27.44;53.79;100553.44;2087736;28;20128;-77
2022/07/30 04:24:48;;;;;;;7.15;2.25;;;;;;;27.58;53.70;100552.69;2083332;28;20045;-77
2022/07/30 04:26:12;;;;;;;4.82;1.92;;;;;;;27.70;53.47;100550.13;2087396;28;20098;-76
2022/07/30 04:27:37;;;;;;;5.00;1.90;;;;;;;27.85;53.19;100551.06;2082592;28;20052;-77
2022/07/30 04:28:59;;;;;;;5.88;2.17;;;;;;;27.99;52.74;100563.84;2084125;28;20057;-77
2022/07/30 04:30:21;;;;;;;;;;;;;;;28.07;52.73;100547.97;2083157;28;20059;-77
2022/07/30 04:31:44;;;;;;;4.70;2.33;;;;;;;28.21;52.66;100558.03;2091476;28;19928;-77
2022/07/30 04:33:27;;;;;;;6.43;2.63;;;;;;;28.36;52.35;100552.50;2094662;28;20045;-77
2022/07/30 04:35:09;;;;;;;9.07;2.17;;;;;;;28.50;51.75;100551.66;2096788;28;20505;-77
2022/07/30 04:36:55;;;;;;;5.65;2.00;;;;;;;28.61;51.32;100553.75;2096156;28;20048;-77
2022/07/30 04:38:18;;;;;;;6.25;2.47;;;;;;;28.73;51.09;100561.13;2093715;28;20040;-77
2022/07/30 04:39:45;;;;;;;6.60;2.40;;;;;;;28.84;50.63;100559.50;2088211;28;20048;-77
2022/07/30 04:41:06;;;;;;;7.15;1.90;;;;;;;28.97;50.42;100553.28;2094142;28;20047;-77
2022/07/30 04:42:49;;;;;;;4.05;1.70;;;;;;;29.12;49.71;100560.44;2096959;28;20131;-77
2022/07/30 04:44:12;;;;;;;5.50;2.25;;;;;;;29.22;49.49;100567.91;2080376;28;20136;-77
2022/07/30 04:45:43;;;;;;;5.10;1.90;;;;;;;29.37;49.02;100565.19;2086262;28;20052;-77
2022/07/30 04:47:07;;;;;;;9.68;2.30;;;;;;;29.50;48.80;100564.28;2078293;28;20049;-77
2022/07/30 04:48:35;;;;;;;4.03;2.15;;;;;;;29.67;48.54;100574.03;2085075;28;20452;-77
2022/07/30 04:50:01;;;;;;;3.55;1.85;;;;;;;29.83;48.15;100571.19;2092779;28;20093;-76
2022/07/30 04:51:35;;;;;;;7.03;2.17;;;;;;;30.00;47.90;100560.03;2085706;28;20060;-77
2022/07/30 04:52:57;;;;;;;8.02;2.13;;;;;;;30.14;47.21;100568.13;2093547;28;20478;-77
2022/07/30 04:54:26;;;;;;;7.47;2.08;;;;;;;30.22;46.87;100568.50;2080466;28;20080;-77
2022/07/30 04:55:49;;;;;;;3.97;1.90;;;;;;;30.36;46.70;100559.34;2086387;28;20044;-77
2022/07/30 04:57:14;;;;;;;6.15;2.00;;;;;;;30.50;46.67;100562.03;2086276;28;20052;-77
2022/07/30 04:58:36;;;;;;;4.32;2.03;;;;;;;30.62;46.49;100569.34;2087507;28;20076;-77
2022/07/30 04:59:59;;;;;;;6.55;1.77;;;;;;;30.78;45.93;100564.56;2085570;28;20059;-77
2022/07/30 05:01:24;;;;;;;6.32;2.08;;;;;;;30.97;45.74;100576.84;2099673;28;20059;-77
2022/07/30 05:02:47;;;;;;;6.50;2.00;;;;;;;31.09;45.59;100567.81;2088217;28;20053;-77
2022/07/30 05:04:12;;;;;;;4.15;1.83;;;;;;;31.18;45.25;100570.72;2084132;28;20037;-77
2022/07/30 05:05:35;;;;;;;8.05;1.88;;;;;;;31.31;44.84;100567.97;2091856;28;20048;-77
2022/07/30 05:07:01;;;;;;;6.30;1.98;;;;;;;31.44;44.65;100571.53;2085801;28;20080;-76
2022/07/30 05:08:23;;;;;;;4.38;1.90;;;;;;;31.55;44.22;100571.63;2089588;28;20051;-77
2022/07/30 05:09:46;;;;;;;6.15;2.00;;;;;;;31.74;44.20;100570.25;2085789;28;20069;-77
2022/07/30 05:11:11;;;;;;;10.02;2.30;;;;;;;31.94;43.59;100572.34;2089672;28;20064;-77
2022/07/30 05:12:36;;;;;;;6.85;2.78;;;;;;;32.10;43.33;100575.63;2085928;28;20045;-77
2022/07/30 05:13:59;;;;;;;4.60;1.83;;;;;;;32.25;42.97;100574.50;2092124;28;20048;-76
2022/07/30 05:15:21;;;;;;;7.97;2.05;;;;;;;32.40;42.81;100573.31;2081169;28;20052;-77
2022/07/30 05:16:43;;;;;;;8.40;2.53;;;;;;;32.58;42.44;100573.72;2080323;28;20555;-77
2022/07/30 05:18:05;;;;;;;5.45;2.05;;;;;;;32.73;42.12;100585.34;2082908;28;20045;-76
2022/07/30 05:19:30;;;;;;;9.18;2.00;;;;;;;32.90;41.93;100587.59;2082495;28;20400;-77
2022/07/30 05:20:52;;;;;;;6.63;2.45;;;;;;;33.09;41.47;100578.75;2087158;28;20044;-77
2022/07/30 05:22:24;;;;;;;7.53;1.85;;;;;;;33.32;41.09;100585.13;2083142;28;20501;-77
2022/07/30 05:23:46;;;;;;;7.13;2.08;;;;;;;33.54;40.92;100583.22;2088288;28;20138;-77
2022/07/30 05:25:13;;;;;;;5.45;2.08;;;;;;;33.68;40.75;100584.81;2094265;28;20154;-77
2022/07/30 05:26:35;;;;;;;4.38;2.00;;;;;;;33.79;40.34;100579.34;2093549;28;20683;-77
2022/07/30 05:27:57;;;;;;;8.80;2.30;;;;;;;33.89;40.03;100582.16;2084372;28;20067;-77
2022/07/30 05:29:20;;;;;;;3.72;1.90;;;;;;;33.93;39.62;100586.41;2091286;28;20040;-77
2022/07/30 05:30:49;;;;;;;8.00;1.92;;;;;;;33.98;39.59;100581.41;2086534;28;20075;-77
2022/07/30 05:32:14;;;;;;;6.25;1.85;;;;;;;34.06;39.30;100586.22;2082111;28;20508;-77
2022/07/30 05:33:37;;;;;;;5.78;2.00;;;;;;;34.16;39.36;100588.03;2082162;28;20091;-77
2022/07/30 05:35:02;;;;;;;5.25;1.92;;;;;;;34.34;39.14;100586.47;2081918;28;20129;-77
2022/07/30 05:36:23;;;;;;;6.25;2.03;;;;;;;34.48;38.84;100584.41;2090851;28;20056;-77
2022/07/30 05:37:47;;;;;;;4.68;1.67;;;;;;;34.55;38.66;100583.75;2082290;28;20110;-76
2022/07/30 05:39:10;;;;;;;5.00;1.98;;;;;;;34.56;38.49;100580.00;2086115;28;20413;-77
2022/07/30 05:40:53;;;;;;;5.22;2.25;;;;;;;34.63;38.61;100577.59;2088764;28;20049;-76
2022/07/30 05:42:34;;;;;;;7.50;2.08;;;;;;;34.75;38.54;100591.13;2096189;28;20076;-77
2022/07/30 05:43:55;;;;;;;6.85;2.08;;;;;;;34.87;38.59;100585.56;2077696;28;20717;-77
2022/07/30 05:45:18;;;;;;;6.15;2.20;;;;;;;35.02;38.20;100575.97;2091173;28;20063;-77
2022/07/30 05:46:40;;;;;;;7.68;2.03;;;;;;;35.16;38.21;100575.59;2093982;28;20044;-77
2022/07/30 05:48:03;;;;;;;3.28;1.80;;;;;;;35.19;37.83;100581.66;2085497;28;20452;-77
2022/07/30 05:49:26;;;;;;;3.53;1.77;;;;;;;35.21;37.86;100586.19;2083190;28;20106;-77
2022/07/30 05:50:51;;;;;;;7.93;2.03;;;;;;;35.32;37.46;100589.69;2092505;28;20040;-77
2022/07/30 05:52:14;;;;;;;4.93;1.88;;;;;;;35.35;37.33;100589.44;2085550;28;20041;-76
2022/07/30 05:53:37;;;;;;;6.95;1.95;;;;;;;35.41;37.23;100588.00;2082849;28;20052;-77
2022/07/30 05:55:20;;;;;;;6.53;1.92;;;;;;;35.43;37.16;100577.75;2094500;28;20036;-77
2022/07/30 05:56:57;;;;;;;6.35;2.25;;;;;;;35.52;36.74;100588.75;2087289;28;20045;-77
2022/07/30 05:58:35;;;;;;;6.53;2.08;;;;;;;35.56;36.26;100581.13;2085925;28;20060;-77
2022/07/30 05:59:58;;;;;;;7.90;1.95;;;;;;;35.61;36.03;100583.44;2090006;28;20050;-77
2022/07/30 06:01:39;;;;;;;6.35;1.90;;;;;;;35.70;35.96;100588.13;2087802;28;20060;-77
2022/07/30 06:03:09;;;;;;;4.55;2.08;;;;;;;35.87;35.96;100590.16;2095103;28;20142;-77
2022/07/30 06:04:32;;;;;;;10.68;2.67;;;;;;;36.04;35.38;100592.19;2088207;28;20059;-77
2022/07/30 06:05:59;;;;;;;5.05;1.80;;;;;;;36.22;35.03;100593.25;2098423;28;20108;-77
2022/07/30 06:07:21;;;;;;;8.00;2.00;;;;;;;36.39;34.74;100596.28;2088502;28;20048;-77
2022/07/30 06:08:46;;;;;;;7.30;1.85;;;;;;;36.52;34.23;100596.84;2088438;28;20551;-77
2022/07/30 06:10:07;;;;;;;3.13;1.73;;;;;;;36.57;34.08;100586.25;2094023;28;20048;-77
2022/07/30 06:11:30;;;;;;;6.53;2.17;;;;;;;36.66;33.70;100585.41;2093882;28;20052;-77
2022/07/30 06:12:51;;;;;;;4.50;1.90;;;;;;;36.79;33.47;100596.09;2085487;28;20085;-77
2022/07/30 06:14:15;;;;;;;5.30;2.08;;;;;;;36.82;33.34;100590.31;2091462;28;20041;-77
2022/07/30 06:15:36;;;;;;;7.25;1.70;;;;;;;36.85;33.28;100584.50;2085476;28;20052;-77
2022/07/30 06:16:59;;;;;;;;;;;;;;;36.75;33.54;100583.66;2082339;28;20067;-77
2022/07/30 06:18:25;;;;;;;5.20;1.70;;;;;;;36.78;33.39;100595.22;2083343;28;19960;-77
2022/07/30 06:19:47;;;;;;;4.45;1.65;;;;;;;36.71;33.14;100583.94;2077200;28;20500;-76
2022/07/30 06:21:10;;;;;;;4.57;1.98;;;;;;;36.70;33.20;100586.84;2082710;28;20083;-75
2022/07/30 06:22:58;;;;;;;5.50;1.75;;;;;;;36.77;32.99;100589.88;2089434;28;20051;-74
2022/07/30 06:24:31;;;;;;;5.20;1.80;;;;;;;36.83;32.96;100590.13;2080037;28;20095;-74
2022/07/30 06:26:06;;;;;;;4.35;1.77;;;;;;;36.91;32.92;100583.88;2078908;28;20225;-74
2022/07/30 06:27:32;;;;;;;5.07;1.77;;;;;;;36.84;32.69;100591.00;2075185;28;20567;-74
2022/07/30 06:28:55;;;;;;;6.22;1.83;;;;;;;36.71;32.70;100586.69;2094173;28;20055;-74
2022/07/30 06:30:24;;;;;;;7.20;2.08;;;;;;;36.71;32.75;100586.69;2086542;28;20067;-74
2022/07/30 06:31:46;;;;;;;6.82;1.80;;;;;;;36.73;32.62;100592.94;2088963;28;20077;-74
2022/07/30 06:33:07;;;;;;;7.25;1.92;;;;;;;36.67;32.50;100589.91;2080024;28;20041;-74
2022/07/30 06:34:30;;;;;;;5.80;1.88;;;;;;;36.66;32.67;100599.19;2091158;28;20154;-73
2022/07/30 06:35:53;;;;;;;6.22;1.98;;;;;;;36.71;32.65;100586.69;2088007;28;20102;-74
2022/07/30 06:37:19;;;;;;;4.68;1.77;;;;;;;36.80;32.78;100597.84;2086096;28;20052;-75
2022/07/30 06:38:42;;;;;;;4.63;1.63;;;;;;;36.93;32.13;100587.38;2085674;28;20508;-74
2022/07/30 06:40:12;;;;;;;5.45;1.90;;;;;;;36.84;32.15;100589.13;2085935;28;20044;-74
2022/07/30 06:41:53;;;;;;;5.63;1.90;;;;;;;36.64;32.48;100591.06;2079893;28;20045;-74